sensor_id;sensor_type;location;lat;lon;timestamp;pressure;altitude;pressure_sealevel;temperature;humidity
23996;BME280;12207;50.076;8.848;2022-09-03T00:00:36;99749.16;;;16.98;58.84
23996;BME280;12207;50.076;8.848;2022-09-03T00:05:36;99743.47;;;17.15;58.66
23996;BME280;12207;50.076;8.848;2022-09-03T00:08:16;99740.88;;;17.16;58.21
23996;BME280;12207;50.076;8.848;2022-09-03T00:11:02;99740.94;;;17.18;58.30
23996;BME280;12207;50.076;8.848;2022-09-03T00:13:34;99740.09;;;17.19;57.94
23996;BME280;12207;50.076;8.848;2022-09-03T00:16:02;99743.56;;;17.19;58.48
23996;BME280;12207;50.076;8.848;2022-09-03T00:18:36;99734.00;;;17.14;58.70
23996;BME280;12207;50.076;8.848;2022-09-03T00:21:08;99739.06;;;17.09;58.12
23996;BME280;12207;50.076;8.848;2022-09-03T00:23:40;99737.34;;;17.08;58.54
23996;BME280;12207;50.076;8.848;2022-09-03T00:31:10;99735.56;;;17.07;59.33
23996;BME280;12207;50.076;8.848;2022-09-03T00:33:40;99737.28;;;17.05;58.67
23996;BME280;12207;50.076;8.848;2022-09-03T00:36:15;99730.31;;;17.01;59.00
23996;BME280;12207;50.076;8.848;2022-09-03T00:38:44;99729.50;;;17.02;58.61
23996;BME280;12207;50.076;8.848;2022-09-03T00:41:25;99732.94;;;17.02;59.65
23996;BME280;12207;50.076;8.848;2022-09-03T00:44:01;99743.25;;;17.02;59.45
23996;BME280;12207;50.076;8.848;2022-09-03T00:49:16;99740.56;;;16.98;59.66
23996;BME280;12207;50.076;8.848;2022-09-03T00:54:25;99743.16;;;16.98;60.18
23996;BME280;12207;50.076;8.848;2022-09-03T01:02:30;99723.22;;;16.88;59.88
23996;BME280;12207;50.076;8.848;2022-09-03T01:07:39;99727.53;;;16.89;60.36
23996;BME280;12207;50.076;8.848;2022-09-03T01:15:33;99725.75;;;16.84;60.58
23996;BME280;12207;50.076;8.848;2022-09-03T01:31:36;99726.00;;;16.54;62.51
23996;BME280;12207;50.076;8.848;2022-09-03T01:34:13;99724.94;;;16.45;63.17
23996;BME280;12207;50.076;8.848;2022-09-03T01:50:01;99728.78;;;16.21;64.29
23996;BME280;12207;50.076;8.848;2022-09-03T01:57:42;99712.53;;;16.27;63.46
23996;BME280;12207;50.076;8.848;2022-09-03T02:00:14;99716.13;;;16.33;63.83
23996;BME280;12207;50.076;8.848;2022-09-03T02:02:42;99715.34;;;16.37;63.18
23996;BME280;12207;50.076;8.848;2022-09-03T02:05:13;99712.00;;;16.41;63.86
23996;BME280;12207;50.076;8.848;2022-09-03T02:07:42;99711.22;;;16.46;64.30
23996;BME280;12207;50.076;8.848;2022-09-03T02:10:13;99706.03;;;16.43;63.49
23996;BME280;12207;50.076;8.848;2022-09-03T02:12:43;99705.28;;;16.48;64.15
23996;BME280;12207;50.076;8.848;2022-09-03T02:15:13;99707.91;;;16.53;63.11
23996;BME280;12207;50.076;8.848;2022-09-03T02:17:40;99712.31;;;16.57;63.04
23996;BME280;12207;50.076;8.848;2022-09-03T02:20:09;99711.53;;;16.61;63.20
23996;BME280;12207;50.076;8.848;2022-09-03T02:22:37;99708.16;;;16.65;62.93
23996;BME280;12207;50.076;8.848;2022-09-03T02:25:05;99715.19;;;16.72;63.01
23996;BME280;12207;50.076;8.848;2022-09-03T02:27:32;99714.38;;;16.75;63.35
23996;BME280;12207;50.076;8.848;2022-09-03T02:29:59;99718.56;;;16.71;62.97
23996;BME280;12207;50.076;8.848;2022-09-03T02:32:26;99716.78;;;16.67;62.82
23996;BME280;12207;50.076;8.848;2022-09-03T02:34:53;99715.69;;;16.54;62.89
23996;BME280;12207;50.076;8.848;2022-09-03T02:37:19;99718.03;;;16.42;63.19
23996;BME280;12207;50.076;8.848;2022-09-03T02:39:46;99718.66;;;16.30;63.79
23996;BME280;12207;50.076;8.848;2022-09-03T02:42:12;99723.50;;;16.16;64.79
23996;BME280;12207;50.076;8.848;2022-09-03T02:44:55;99716.53;;;16.11;65.08
23996;BME280;12207;50.076;8.848;2022-09-03T02:47:22;99719.00;;;16.06;65.61
23996;BME280;12207;50.076;8.848;2022-09-03T02:49:54;99725.81;;;16.04;66.05
23996;BME280;12207;50.076;8.848;2022-09-03T02:52:20;99728.34;;;16.01;66.16
23996;BME280;12207;50.076;8.848;2022-09-03T02:54:47;99729.06;;;15.95;66.73
23996;BME280;12207;50.076;8.848;2022-09-03T02:57:14;99727.41;;;15.98;66.95
23996;BME280;12207;50.076;8.848;2022-09-03T02:59:41;99722.19;;;15.94;66.38
23996;BME280;12207;50.076;8.848;2022-09-03T03:02:11;99725.50;;;15.90;67.28
23996;BME280;12207;50.076;8.848;2022-09-03T03:04:37;99737.50;;;15.88;67.04
23996;BME280;12207;50.076;8.848;2022-09-03T03:07:05;99732.56;;;15.98;66.25
23996;BME280;12207;50.076;8.848;2022-09-03T03:09:31;99734.22;;;15.97;66.92
23996;BME280;12207;50.076;8.848;2022-09-03T03:11:58;99723.78;;;15.89;67.62
23996;BME280;12207;50.076;8.848;2022-09-03T03:14:24;99729.72;;;15.87;67.56
23996;BME280;12207;50.076;8.848;2022-09-03T03:16:51;99729.91;;;15.94;67.20
23996;BME280;12207;50.076;8.848;2022-09-03T03:19:17;99724.03;;;16.02;66.90
23996;BME280;12207;50.076;8.848;2022-09-03T03:21:44;99718.84;;;16.00;67.09
23996;BME280;12207;50.076;8.848;2022-09-03T03:24:10;99725.78;;;16.03;66.85
23996;BME280;12207;50.076;8.848;2022-09-03T03:26:37;99729.13;;;15.99;67.09
23996;BME280;12207;50.076;8.848;2022-09-03T03:29:03;99730.91;;;16.01;67.64
23996;BME280;12207;50.076;8.848;2022-09-03T03:31:30;99724.91;;;16.01;67.56
23996;BME280;12207;50.076;8.848;2022-09-03T03:33:58;99735.31;;;16.07;67.20
23996;BME280;12207;50.076;8.848;2022-09-03T03:36:25;99728.19;;;15.95;67.89
23996;BME280;12207;50.076;8.848;2022-09-03T03:38:52;99723.97;;;15.99;67.99
23996;BME280;12207;50.076;8.848;2022-09-03T03:41:20;99722.25;;;15.98;68.00
23996;BME280;12207;50.076;8.848;2022-09-03T03:43:47;99730.84;;;16.00;68.13
23996;BME280;12207;50.076;8.848;2022-09-03T03:46:17;99722.25;;;15.98;67.89
23996;BME280;12207;50.076;8.848;2022-09-03T03:48:46;99725.69;;;15.98;68.72
23996;BME280;12207;50.076;8.848;2022-09-03T03:51:12;99723.13;;;16.00;68.49
23996;BME280;12207;50.076;8.848;2022-09-03T03:53:39;99727.63;;;16.08;67.94
23996;BME280;12207;50.076;8.848;2022-09-03T03:56:06;99720.94;;;16.18;67.61
23996;BME280;12207;50.076;8.848;2022-09-03T03:58:35;99721.97;;;16.25;67.44
23996;BME280;12207;50.076;8.848;2022-09-03T04:01:06;99716.13;;;16.33;67.05
23996;BME280;12207;50.076;8.848;2022-09-03T04:03:33;99724.88;;;16.41;67.18
23996;BME280;12207;50.076;8.848;2022-09-03T04:05:59;99717.13;;;16.41;66.78
23996;BME280;12207;50.076;8.848;2022-09-03T04:08:27;99723.06;;;16.37;66.37
23996;BME280;12207;50.076;8.848;2022-09-03T04:10:57;99719.47;;;16.29;67.21
23996;BME280;12207;50.076;8.848;2022-09-03T04:13:27;99713.53;;;16.32;66.89
23996;BME280;12207;50.076;8.848;2022-09-03T04:15:58;99708.41;;;16.33;67.69
23996;BME280;12207;50.076;8.848;2022-09-03T04:18:25;99704.09;;;16.32;67.17
23996;BME280;12207;50.076;8.848;2022-09-03T04:20:51;99704.25;;;16.41;66.87
23996;BME280;12207;50.076;8.848;2022-09-03T04:23:18;99706.03;;;16.43;67.61
23996;BME280;12207;50.076;8.848;2022-09-03T04:25:50;99708.66;;;16.46;67.57
23996;BME280;12207;50.076;8.848;2022-09-03T04:28:17;99718.22;;;16.53;66.89
23996;BME280;12207;50.076;8.848;2022-09-03T04:30:43;99713.06;;;16.51;67.19
23996;BME280;12207;50.076;8.848;2022-09-03T04:33:10;99712.09;;;16.46;66.96
23996;BME280;12207;50.076;8.848;2022-09-03T04:35:36;99713.81;;;16.46;66.84
23996;BME280;12207;50.076;8.848;2022-09-03T04:38:03;99719.78;;;16.45;66.84
23996;BME280;12207;50.076;8.848;2022-09-03T04:40:29;99720.69;;;16.47;66.72
23996;BME280;12207;50.076;8.848;2022-09-03T04:42:56;99718.91;;;16.44;67.38
23996;BME280;12207;50.076;8.848;2022-09-03T04:45:24;99716.28;;;16.41;66.82
23996;BME280;12207;50.076;8.848;2022-09-03T04:47:57;99716.28;;;16.41;66.55
23996;BME280;12207;50.076;8.848;2022-09-03T04:50:24;99721.47;;;16.43;66.80
23996;BME280;12207;50.076;8.848;2022-09-03T04:52:59;99725.88;;;16.48;66.70
23996;BME280;12207;50.076;8.848;2022-09-03T04:55:26;99724.22;;;16.52;65.91
23996;BME280;12207;50.076;8.848;2022-09-03T04:57:52;99724.31;;;16.56;65.98
23996;BME280;12207;50.076;8.848;2022-09-03T05:00:19;99726.94;;;16.59;65.62
23996;BME280;12207;50.076;8.848;2022-09-03T05:02:45;99732.16;;;16.62;66.16
23996;BME280;12207;50.076;8.848;2022-09-03T05:05:14;99729.00;;;16.76;65.45
23996;BME280;12207;50.076;8.848;2022-09-03T05:07:40;99723.00;;;16.77;65.13
23996;BME280;12207;50.076;8.848;2022-09-03T05:10:07;99726.44;;;16.77;65.56
23996;BME280;12207;50.076;8.848;2022-09-03T05:12:35;99721.41;;;16.82;65.38
23996;BME280;12207;50.076;8.848;2022-09-03T05:15:01;99726.50;;;16.80;65.32
23996;BME280;12207;50.076;8.848;2022-09-03T05:17:30;99723.34;;;16.95;65.50
23996;BME280;12207;50.076;8.848;2022-09-03T05:19:57;99725.91;;;16.94;65.01
23996;BME280;12207;50.076;8.848;2022-09-03T05:22:23;99718.78;;;16.80;65.62
23996;BME280;12207;50.076;8.848;2022-09-03T05:24:50;99730.09;;;16.87;65.61
23996;BME280;12207;50.076;8.848;2022-09-03T05:27:16;99721.50;;;16.88;65.96
23996;BME280;12207;50.076;8.848;2022-09-03T05:29:43;99728.59;;;17.00;66.08
23996;BME280;12207;50.076;8.848;2022-09-03T05:32:10;99727.78;;;17.04;65.70
23996;BME280;12207;50.076;8.848;2022-09-03T05:34:36;99731.16;;;17.00;65.90
23996;BME280;12207;50.076;8.848;2022-09-03T05:37:03;99731.22;;;17.03;65.51
23996;BME280;12207;50.076;8.848;2022-09-03T05:39:29;99738.22;;;17.10;66.28
23996;BME280;12207;50.076;8.848;2022-09-03T05:41:56;99732.22;;;17.11;65.86
23996;BME280;12207;50.076;8.848;2022-09-03T05:44:22;99745.34;;;17.23;65.80
23996;BME280;12207;50.076;8.848;2022-09-03T05:46:50;99743.75;;;17.31;66.09
23996;BME280;12207;50.076;8.848;2022-09-03T05:49:16;99753.97;;;17.25;65.72
23996;BME280;12207;50.076;8.848;2022-09-03T05:51:43;99753.88;;;17.19;66.03
23996;BME280;12207;50.076;8.848;2022-09-03T05:54:10;99754.69;;;17.18;66.24
23996;BME280;12207;50.076;8.848;2022-09-03T05:56:37;99746.91;;;17.15;67.16
23996;BME280;12207;50.076;8.848;2022-09-03T05:59:06;99748.00;;;17.29;66.32
23996;BME280;12207;50.076;8.848;2022-09-03T06:01:35;99750.97;;;17.02;67.18
23996;BME280;12207;50.076;8.848;2022-09-03T06:04:02;99755.59;;;17.22;67.27
23996;BME280;12207;50.076;8.848;2022-09-03T06:06:30;99760.81;;;17.23;66.65
23996;BME280;12207;50.076;8.848;2022-09-03T06:08:58;99765.16;;;17.26;66.58
23996;BME280;12207;50.076;8.848;2022-09-03T06:11:25;99754.78;;;17.23;66.44
23996;BME280;12207;50.076;8.848;2022-09-03T06:13:53;99762.59;;;17.27;67.64
23996;BME280;12207;50.076;8.848;2022-09-03T06:16:20;99760.66;;;17.16;67.25
23996;BME280;12207;50.076;8.848;2022-09-03T06:18:47;99761.59;;;17.19;67.48
23996;BME280;12207;50.076;8.848;2022-09-03T06:21:14;99761.59;;;17.19;67.32
23996;BME280;12207;50.076;8.848;2022-09-03T06:23:42;99771.78;;;17.13;67.24
23996;BME280;12207;50.076;8.848;2022-09-03T06:26:11;99777.06;;;17.19;67.54
23996;BME280;12207;50.076;8.848;2022-09-03T06:28:40;99773.22;;;16.96;68.30
23996;BME280;12207;50.076;8.848;2022-09-03T06:31:10;99775.22;;;17.12;68.21
23996;BME280;12207;50.076;8.848;2022-09-03T06:33:37;99773.59;;;17.19;67.87
23996;BME280;12207;50.076;8.848;2022-09-03T06:36:04;99777.94;;;17.21;68.06
23996;BME280;12207;50.076;8.848;2022-09-03T06:38:32;99773.72;;;17.25;67.96
23996;BME280;12207;50.076;8.848;2022-09-03T06:41:01;99769.41;;;17.22;71.44
23996;BME280;12207;50.076;8.848;2022-09-03T06:43:30;99772.63;;;17.12;76.15
23996;BME280;12207;50.076;8.848;2022-09-03T06:45:59;99770.63;;;16.96;78.10
23996;BME280;12207;50.076;8.848;2022-09-03T06:48:26;99772.25;;;16.92;81.59
23996;BME280;12207;50.076;8.848;2022-09-03T06:51:00;99778.19;;;16.87;81.68
23996;BME280;12207;50.076;8.848;2022-09-03T06:53:28;99770.38;;;16.83;81.71
23996;BME280;12207;50.076;8.848;2022-09-03T06:55:55;99782.22;;;16.75;82.67
23996;BME280;12207;50.076;8.848;2022-09-03T06:58:23;99777.16;;;16.78;87.77
23996;BME280;12207;50.076;8.848;2022-09-03T07:00:49;99783.91;;;16.73;92.02
23996;BME280;12207;50.076;8.848;2022-09-03T07:03:18;99782.97;;;16.70;93.31
23996;BME280;12207;50.076;8.848;2022-09-03T07:05:45;99784.50;;;16.60;90.38
23996;BME280;12207;50.076;8.848;2022-09-03T07:08:11;99783.72;;;16.64;88.86
23996;BME280;12207;50.076;8.848;2022-09-03T07:10:38;99782.63;;;16.53;84.54
23996;BME280;12207;50.076;8.848;2022-09-03T07:13:04;99797.09;;;16.46;84.79
23996;BME280;12207;50.076;8.848;2022-09-03T07:15:34;99786.97;;;16.55;85.93
23996;BME280;12207;50.076;8.848;2022-09-03T07:18:00;99793.03;;;16.57;84.92
23996;BME280;12207;50.076;8.848;2022-09-03T07:20:27;99791.31;;;16.58;84.87
23996;BME280;12207;50.076;8.848;2022-09-03T07:22:54;99795.69;;;16.62;87.12
23996;BME280;12207;50.076;8.848;2022-09-03T07:25:24;99798.31;;;16.63;84.26
23996;BME280;12207;50.076;8.848;2022-09-03T07:27:54;99804.50;;;16.73;85.47
23996;BME280;12207;50.076;8.848;2022-09-03T07:30:20;99806.00;;;16.62;85.88
23996;BME280;12207;50.076;8.848;2022-09-03T07:32:47;99805.25;;;16.66;88.83
23996;BME280;12207;50.076;8.848;2022-09-03T07:35:16;99807.97;;;16.74;89.32
23996;BME280;12207;50.076;8.848;2022-09-03T07:37:45;99805.72;;;16.89;90.87
23996;BME280;12207;50.076;8.848;2022-09-03T07:40:11;99814.22;;;16.85;88.50
23996;BME280;12207;50.076;8.848;2022-09-03T07:42:39;99809.53;;;17.08;91.71
23996;BME280;12207;50.076;8.848;2022-09-03T07:45:06;99809.75;;;17.20;91.76
23996;BME280;12207;50.076;8.848;2022-09-03T07:47:35;99809.97;;;17.33;92.01
23996;BME280;12207;50.076;8.848;2022-09-03T07:50:03;99802.03;;;17.22;86.84
23996;BME280;12207;50.076;8.848;2022-09-03T07:52:30;99807.28;;;17.28;87.22
23996;BME280;12207;50.076;8.848;2022-09-03T07:54:56;99814.69;;;17.09;85.66
23996;BME280;12207;50.076;8.848;2022-09-03T07:57:23;99815.66;;;17.15;87.14
23996;BME280;12207;50.076;8.848;2022-09-03T07:59:49;99810.41;;;17.10;87.92
23996;BME280;12207;50.076;8.848;2022-09-03T08:02:16;99814.63;;;17.06;88.72
23996;BME280;12207;50.076;8.848;2022-09-03T08:04:42;99816.47;;;17.12;87.76
23996;BME280;12207;50.076;8.848;2022-09-03T08:07:09;99814.31;;;17.37;89.24
23996;BME280;12207;50.076;8.848;2022-09-03T08:09:36;99819.19;;;17.68;91.07
23996;BME280;12207;50.076;8.848;2022-09-03T08:12:02;99815.91;;;17.79;89.06
23996;BME280;12207;50.076;8.848;2022-09-03T08:14:29;99825.03;;;18.10;86.57
23996;BME280;12207;50.076;8.848;2022-09-03T08:16:56;99828.72;;;18.27;86.04
23996;BME280;12207;50.076;8.848;2022-09-03T08:19:25;99825.94;;;18.13;83.30
23996;BME280;12207;50.076;8.848;2022-09-03T08:21:51;99823.03;;;17.93;83.15
23996;BME280;12207;50.076;8.848;2022-09-03T08:24:18;99818.88;;;17.51;81.55
23996;BME280;12207;50.076;8.848;2022-09-03T08:26:47;99813.38;;;17.80;82.45
23996;BME280;12207;50.076;8.848;2022-09-03T08:29:13;99810.91;;;17.38;82.24
23996;BME280;12207;50.076;8.848;2022-09-03T08:31:40;99812.53;;;17.33;84.09
23996;BME280;12207;50.076;8.848;2022-09-03T08:34:06;99809.16;;;17.35;84.78
23996;BME280;12207;50.076;8.848;2022-09-03T08:36:34;99812.50;;;17.29;87.59
23996;BME280;12207;50.076;8.848;2022-09-03T08:39:02;99813.03;;;17.12;90.94
23996;BME280;12207;50.076;8.848;2022-09-03T08:42:04;99815.13;;;17.33;92.79
23996;BME280;12207;50.076;8.848;2022-09-03T08:47:05;99818.72;;;17.41;96.06
23996;BME280;12207;50.076;8.848;2022-09-03T08:55:21;99813.41;;;17.83;100.00
23996;BME280;12207;50.076;8.848;2022-09-03T08:57:49;99815.09;;;17.80;100.00
23996;BME280;12207;50.076;8.848;2022-09-03T09:00:16;99815.06;;;17.78;100.00
23996;BME280;12207;50.076;8.848;2022-09-03T09:02:55;99822.31;;;18.02;100.00
23996;BME280;12207;50.076;8.848;2022-09-03T09:10:47;99821.06;;;18.33;88.01
23996;BME280;12207;50.076;8.848;2022-09-03T09:13:19;99830.53;;;18.98;83.43
23996;BME280;12207;50.076;8.848;2022-09-03T09:16:03;99827.38;;;19.30;81.35
23996;BME280;12207;50.076;8.848;2022-09-03T09:21:12;99825.84;;;20.65;78.23
23996;BME280;12207;50.076;8.848;2022-09-03T09:23:42;99827.53;;;20.58;77.14
23996;BME280;12207;50.076;8.848;2022-09-03T09:26:10;99825.88;;;20.74;74.34
23996;BME280;12207;50.076;8.848;2022-09-03T09:28:38;99825.56;;;20.22;73.96
23996;BME280;12207;50.076;8.848;2022-09-03T09:31:06;99822.31;;;20.55;76.25
23996;BME280;12207;50.076;8.848;2022-09-03T09:33:34;99823.44;;;21.19;73.68
23996;BME280;12207;50.076;8.848;2022-09-03T09:36:00;99831.19;;;21.08;68.44
23996;BME280;12207;50.076;8.848;2022-09-03T09:38:29;99833.53;;;20.49;72.59
23996;BME280;12207;50.076;8.848;2022-09-03T09:41:06;99842.41;;;21.04;70.86
23996;BME280;12207;50.076;8.848;2022-09-03T09:43:33;99842.56;;;21.93;70.64
23996;BME280;12207;50.076;8.848;2022-09-03T09:46:05;99836.50;;;21.88;68.66
23996;BME280;12207;50.076;8.848;2022-09-03T09:48:33;99846.03;;;21.90;66.23
23996;BME280;12207;50.076;8.848;2022-09-03T09:51:09;99844.28;;;21.74;69.61
23996;BME280;12207;50.076;8.848;2022-09-03T09:53:36;99841.69;;;21.55;67.70
23996;BME280;12207;50.076;8.848;2022-09-03T09:56:03;99844.28;;;21.63;70.14
23996;BME280;12207;50.076;8.848;2022-09-03T09:58:30;99839.97;;;21.54;69.75
23996;BME280;12207;50.076;8.848;2022-09-03T10:01:05;99843.41;;;21.56;70.55
23996;BME280;12207;50.076;8.848;2022-09-03T10:06:34;99846.84;;;21.37;69.66
23996;BME280;12207;50.076;8.848;2022-09-03T10:09:20;99846.03;;;21.59;68.95
23996;BME280;12207;50.076;8.848;2022-09-03T10:11:49;99842.53;;;21.68;66.14
23996;BME280;12207;50.076;8.848;2022-09-03T10:14:26;99842.56;;;21.82;65.91
23996;BME280;12207;50.076;8.848;2022-09-03T10:17:06;99839.94;;;21.44;67.41
23996;BME280;12207;50.076;8.848;2022-09-03T10:19:45;99842.44;;;21.16;65.55
23996;BME280;12207;50.076;8.848;2022-09-03T10:22:35;99845.94;;;21.35;65.73
23996;BME280;12207;50.076;8.848;2022-09-03T10:25:06;99837.34;;;21.39;66.41
23996;BME280;12207;50.076;8.848;2022-09-03T10:27:33;99839.94;;;21.36;65.36
23996;BME280;12207;50.076;8.848;2022-09-03T10:30:01;99832.16;;;21.50;67.12
23996;BME280;12207;50.076;8.848;2022-09-03T10:35:28;99823.50;;;21.37;67.15
23996;BME280;12207;50.076;8.848;2022-09-03T10:38:02;99839.09;;;21.61;63.86
23996;BME280;12207;50.076;8.848;2022-09-03T10:53:57;99848.59;;;22.24;63.80
23996;BME280;12207;50.076;8.848;2022-09-03T11:04:17;99840.81;;;21.52;66.37
23996;BME280;12207;50.076;8.848;2022-09-03T11:06:51;99839.88;;;22.45;63.80
23996;BME280;12207;50.076;8.848;2022-09-03T11:09:21;99837.06;;;23.09;61.86
23996;BME280;12207;50.076;8.848;2022-09-03T11:11:52;99836.19;;;23.07;61.74
23996;BME280;12207;50.076;8.848;2022-09-03T11:14:27;99835.56;;;24.01;59.68
23996;BME280;12207;50.076;8.848;2022-09-03T11:16:57;99834.97;;;24.59;58.93
23996;BME280;12207;50.076;8.848;2022-09-03T11:19:47;99832.69;;;24.24;55.50
23996;BME280;12207;50.076;8.848;2022-09-03T11:22:13;99833.78;;;22.58;59.62
23996;BME280;12207;50.076;8.848;2022-09-03T11:24:43;99835.47;;;22.74;61.15
23996;BME280;12207;50.076;8.848;2022-09-03T11:29:49;99824.66;;;23.48;60.31
23996;BME280;12207;50.076;8.848;2022-09-03T11:32:23;99826.13;;;23.86;58.53
23996;BME280;12207;50.076;8.848;2022-09-03T11:34:52;99820.91;;;24.72;57.32
23996;BME280;12207;50.076;8.848;2022-09-03T11:37:23;99820.41;;;25.09;56.59
23996;BME280;12207;50.076;8.848;2022-09-03T11:39:53;99818.31;;;25.34;54.73
23996;BME280;12207;50.076;8.848;2022-09-03T11:42:33;99812.50;;;25.15;53.63
23996;BME280;12207;50.076;8.848;2022-09-03T11:47:46;99804.78;;;25.06;54.22
23996;BME280;12207;50.076;8.848;2022-09-03T11:52:48;99814.69;;;24.81;56.31
23996;BME280;12207;50.076;8.848;2022-09-03T11:55:27;99813.63;;;24.96;56.15
23996;BME280;12207;50.076;8.848;2022-09-03T11:57:56;99806.19;;;25.32;54.72
23996;BME280;12207;50.076;8.848;2022-09-03T12:00:22;99800.47;;;25.61;54.50
23996;BME280;12207;50.076;8.848;2022-09-03T12:02:52;99797.16;;;26.02;51.97
23996;BME280;12207;50.076;8.848;2022-09-03T12:10:40;99801.25;;;24.42;55.88
23996;BME280;12207;50.076;8.848;2022-09-03T12:13:19;99793.78;;;24.07;57.56
23996;BME280;12207;50.076;8.848;2022-09-03T12:18:25;99786.09;;;24.72;56.13
23996;BME280;12207;50.076;8.848;2022-09-03T12:23:34;99783.78;;;25.15;54.62
23996;BME280;12207;50.076;8.848;2022-09-03T12:26:02;99777.13;;;24.91;55.48
23996;BME280;12207;50.076;8.848;2022-09-03T12:28:30;99777.13;;;24.93;55.24
23996;BME280;12207;50.076;8.848;2022-09-03T12:31:08;99788.72;;;25.34;54.73
23996;BME280;12207;50.076;8.848;2022-09-03T12:33:46;99782.69;;;24.67;55.71
23996;BME280;12207;50.076;8.848;2022-09-03T12:36:13;99783.50;;;24.69;56.71
23996;BME280;12207;50.076;8.848;2022-09-03T12:38:40;99779.69;;;24.23;57.50
23996;BME280;12207;50.076;8.848;2022-09-03T12:41:18;99778.50;;;24.53;57.55
23996;BME280;12207;50.076;8.848;2022-09-03T12:43:49;99772.09;;;24.79;56.48
23996;BME280;12207;50.076;8.848;2022-09-03T12:46:16;99772.34;;;24.61;57.42
23996;BME280;12207;50.076;8.848;2022-09-03T12:49:02;99774.34;;;25.05;55.58
23996;BME280;12207;50.076;8.848;2022-09-03T12:51:31;99772.28;;;25.80;54.29
23996;BME280;12207;50.076;8.848;2022-09-03T12:53:58;99767.53;;;24.21;56.83
23996;BME280;12207;50.076;8.848;2022-09-03T12:56:24;99761.13;;;23.66;58.89
23996;BME280;12207;50.076;8.848;2022-09-03T12:58:55;99764.06;;;23.25;61.20
23996;BME280;12207;50.076;8.848;2022-09-03T13:01:27;99755.78;;;23.86;59.21
23996;BME280;12207;50.076;8.848;2022-09-03T13:09:27;99763.81;;;24.46;58.12
23996;BME280;12207;50.076;8.848;2022-09-03T13:11:55;99758.03;;;24.17;57.72
23996;BME280;12207;50.076;8.848;2022-09-03T13:14:25;99760.75;;;24.07;57.91
23996;BME280;12207;50.076;8.848;2022-09-03T13:32:36;99764.56;;;23.73;60.12
23996;BME280;12207;50.076;8.848;2022-09-03T13:37:59;99762.03;;;23.60;60.09
23996;BME280;12207;50.076;8.848;2022-09-03T13:43:10;99761.03;;;23.78;60.69
23996;BME280;12207;50.076;8.848;2022-09-03T13:45:44;99755.84;;;23.75;60.07
23996;BME280;12207;50.076;8.848;2022-09-03T13:51:35;99763.53;;;23.92;59.82
23996;BME280;12207;50.076;8.848;2022-09-03T13:56:24;99767.47;;;24.27;59.65
23996;BME280;12207;50.076;8.848;2022-09-03T13:58:59;99774.03;;;24.63;59.12
23996;BME280;12207;50.076;8.848;2022-09-03T14:03:59;99770.97;;;24.95;56.45
23996;BME280;12207;50.076;8.848;2022-09-03T14:11:59;99761.94;;;26.20;54.09
23996;BME280;12207;50.076;8.848;2022-09-03T14:14:34;99762.84;;;25.69;54.60
23996;BME280;12207;50.076;8.848;2022-09-03T14:27:26;99749.88;;;25.65;55.56
23996;BME280;12207;50.076;8.848;2022-09-03T14:30:00;99754.84;;;25.79;54.94
23996;BME280;12207;50.076;8.848;2022-09-03T14:40:16;99742.38;;;24.86;59.11
23996;BME280;12207;50.076;8.848;2022-09-03T14:58:28;99741.22;;;24.44;59.77
23996;BME280;12207;50.076;8.848;2022-09-03T15:01:01;99746.97;;;24.69;58.12
23996;BME280;12207;50.076;8.848;2022-09-03T15:06:05;99742.22;;;24.33;59.55
23996;BME280;12207;50.076;8.848;2022-09-03T15:11:18;99756.03;;;24.39;60.12
23996;BME280;12207;50.076;8.848;2022-09-03T15:13:48;99749.56;;;24.72;58.78
23996;BME280;12207;50.076;8.848;2022-09-03T15:16:24;99749.22;;;24.95;57.64
23996;BME280;12207;50.076;8.848;2022-09-03T15:24:34;99735.28;;;25.53;56.56
23996;BME280;12207;50.076;8.848;2022-09-03T15:35:05;99734.38;;;24.98;57.69
23996;BME280;12207;50.076;8.848;2022-09-03T15:37:43;99732.94;;;24.79;59.20
23996;BME280;12207;50.076;8.848;2022-09-03T15:42:46;99732.78;;;24.90;58.79
23996;BME280;12207;50.076;8.848;2022-09-03T15:45:33;99732.19;;;25.28;57.92
23996;BME280;12207;50.076;8.848;2022-09-03T15:48:19;99732.41;;;25.13;58.22
23996;BME280;12207;50.076;8.848;2022-09-03T15:50:48;99743.84;;;25.06;58.80
23996;BME280;12207;50.076;8.848;2022-09-03T15:58:38;99744.34;;;24.72;59.11
23996;BME280;12207;50.076;8.848;2022-09-03T16:02:07;99743.50;;;24.70;59.02
23996;BME280;12207;50.076;8.848;2022-09-03T16:12:19;99754.41;;;24.30;61.24
23996;BME280;12207;50.076;8.848;2022-09-03T16:14:50;99749.22;;;24.28;61.22
23996;BME280;12207;50.076;8.848;2022-09-03T16:17:25;99748.59;;;24.05;62.56
23996;BME280;12207;50.076;8.848;2022-09-03T16:20:02;99749.56;;;23.96;62.69
23996;BME280;12207;50.076;8.848;2022-09-03T16:22:30;99754.91;;;23.84;63.16
23996;BME280;12207;50.076;8.848;2022-09-03T16:27:35;99740.13;;;23.86;63.52
23996;BME280;12207;50.076;8.848;2022-09-03T16:30:08;99739.28;;;23.84;63.19
23996;BME280;12207;50.076;8.848;2022-09-03T16:35:14;99747.78;;;24.01;63.43
23996;BME280;12207;50.076;8.848;2022-09-03T16:40:21;99749.66;;;23.85;64.10
23996;BME280;12207;50.076;8.848;2022-09-03T16:42:56;99737.47;;;23.91;64.02
23996;BME280;12207;50.076;8.848;2022-09-03T16:48:29;99749.69;;;23.84;64.45
23996;BME280;12207;50.076;8.848;2022-09-03T16:53:28;99754.13;;;23.77;64.51
23996;BME280;12207;50.076;8.848;2022-09-03T16:56:11;99755.94;;;23.63;65.76
23996;BME280;12207;50.076;8.848;2022-09-03T17:01:44;99761.41;;;23.32;66.96
23996;BME280;12207;50.076;8.848;2022-09-03T17:07:20;99767.66;;;23.11;67.69
23996;BME280;12207;50.076;8.848;2022-09-03T17:17:22;99768.75;;;22.57;71.01
23996;BME280;12207;50.076;8.848;2022-09-03T17:22:29;99767.06;;;22.51;70.92
23996;BME280;12207;50.076;8.848;2022-09-03T17:25:00;99769.66;;;22.51;71.83
23996;BME280;12207;50.076;8.848;2022-09-03T17:30:19;99770.59;;;22.30;71.66
23996;BME280;12207;50.076;8.848;2022-09-03T17:32:58;99772.38;;;22.23;72.81
23996;BME280;12207;50.076;8.848;2022-09-03T17:35:35;99776.72;;;22.20;72.72